KOAJ/OAJ METAR and TAF weather

Enter ICAO airport designator
Station Type Date Time Source
KOAJ METAR 2023/02/05 13:56 UTC NOAA

KOAJ 051356Z 05004KT 10SM FEW039 BKN075 04/M03 A3042 RMK AO2 SLP304 T00441028


Station Type Date Time Source
KOAJ Decoded METAR 2023/02/05 13:56 UTC NOAA

Jacksonville, Albert J Ellis Airport, NC, United States (KOAJ) 34-50N 077-37W
Feb 05, 2023 - 08:56 AM EST / 2023.02.05 1356 UTC
Wind: from the NE (050 degrees) at 5 MPH (4 KT):0
Visibility: 10 mile(s):0
Sky conditions: mostly cloudy
Temperature: 39.9 F (4.4 C)
Dew Point: 27.0 F (-2.8 C)
Relative Humidity: 59%
Pressure (altimeter): 30.42 in. Hg (1030 hPa)
ob: KOAJ 051356Z 05004KT 10SM FEW039 BKN075 04/M03 A3042 RMK AO2 SLP304 T00441028
cycle: 14

Station Type Date Time Source
KOAJ TAF 2023/02/05 12:39 UTC NOAA

TAF KOAJ 051136Z 0512/0612 VRB03KT P6SM SCT030 OVC040
FM051500 07003KT P6SM VCSH SCT030 OVC050
FM051900 02003KT 6SM -SHRA BR OVC026
FM052000 VRB03KT 5SM -SHRA BR OVC015
FM052300 VRB03KT 5SM BR OVC008
FM060700 29004KT P6SM SCT015
AMD LTD TO CLD VIS AND WIND

Example: see airport list